createdAt,value
2023-02-19T00:01:18.246Z,88.00
2023-02-19T00:06:21.329Z,88.03
2023-02-19T00:11:25.716Z,87.91
2023-02-19T00:16:32.964Z,87.57
2023-02-19T00:21:34.657Z,87.58
2023-02-19T00:26:40.005Z,87.41
2023-02-19T00:31:42.315Z,86.43
2023-02-19T00:36:44.420Z,85.12
2023-02-19T00:41:46.768Z,84.07
2023-02-19T00:46:48.728Z,83.64
2023-02-19T00:51:52.661Z,83.37
2023-02-19T00:56:54.215Z,83.36
2023-02-19T01:01:55.776Z,82.69
2023-02-19T01:06:57.335Z,82.50
2023-02-19T01:11:59.100Z,82.72
2023-02-19T01:17:00.945Z,82.69
2023-02-19T01:22:02.801Z,82.28
2023-02-19T01:27:04.788Z,82.24
2023-02-19T01:32:06.445Z,81.88
2023-02-19T01:37:12.457Z,81.66
2023-02-19T01:42:17.410Z,81.40
2023-02-19T01:47:20.406Z,81.28
2023-02-19T01:52:34.517Z,80.81
2023-02-19T01:57:40.707Z,81.07
2023-02-19T02:02:45.823Z,81.07
2023-02-19T02:08:06.105Z,80.64
2023-02-19T02:13:07.919Z,79.97
2023-02-19T02:18:35.929Z,79.07
2023-02-19T02:24:25.868Z,78.56
2023-02-19T02:29:49.196Z,77.62
2023-02-19T02:35:04.093Z,77.70
2023-02-19T02:40:08.350Z,77.98
2023-02-19T02:45:38.001Z,77.77
2023-02-19T02:50:46.182Z,78.04
2023-02-19T02:55:52.230Z,78.19
2023-02-19T03:01:28.109Z,78.38
2023-02-19T03:06:33.609Z,78.74
2023-02-19T03:11:58.095Z,78.70
2023-02-19T03:17:27.185Z,78.95
2023-02-19T03:22:36.402Z,79.37
2023-02-19T03:27:41.531Z,79.83
2023-02-19T03:32:49.604Z,79.92
2023-02-19T03:38:18.800Z,80.13
2023-02-19T03:43:37.756Z,80.12
2023-02-19T03:49:14.950Z,80.01
2023-02-19T03:54:33.649Z,80.17
2023-02-19T03:59:54.384Z,79.99
2023-02-19T04:05:14.072Z,80.23
2023-02-19T04:10:18.746Z,79.84
2023-02-19T04:15:25.203Z,79.83
2023-02-19T04:20:32.207Z,79.78
2023-02-19T04:25:35.970Z,79.54
2023-02-19T04:30:37.924Z,79.48
2023-02-19T04:35:39.532Z,79.52
2023-02-19T04:40:41.313Z,79.08
2023-02-19T04:45:42.863Z,78.93
2023-02-19T04:50:44.433Z,78.94
2023-02-19T04:55:47.001Z,78.82
2023-02-19T05:00:52.877Z,78.74
2023-02-19T05:05:54.517Z,78.70
2023-02-19T05:10:59.786Z,78.47
2023-02-19T05:16:04.390Z,78.59
2023-02-19T05:21:06.493Z,78.36
2023-02-19T05:26:11.990Z,78.54
2023-02-19T05:31:14.834Z,78.42
2023-02-19T05:36:17.896Z,78.32
2023-02-19T05:41:21.855Z,78.31
2023-02-19T05:46:26.244Z,78.22
2023-02-19T05:51:27.946Z,78.35
2023-02-19T05:56:38.074Z,78.57
2023-02-19T06:01:39.623Z,78.38
2023-02-19T06:06:42.437Z,78.35
2023-02-19T06:11:44.142Z,78.63
2023-02-19T06:16:45.649Z,78.79
2023-02-19T06:21:51.107Z,78.89
2023-02-19T06:26:52.705Z,79.00
2023-02-19T06:31:54.412Z,78.92
2023-02-19T06:36:57.864Z,78.99
2023-02-19T06:41:59.659Z,79.02
2023-02-19T06:47:01.205Z,79.06
2023-02-19T06:52:03.797Z,79.00
2023-02-19T06:57:05.387Z,79.02
2023-02-19T07:02:07.502Z,78.53
2023-02-19T07:07:12.084Z,78.52
2023-02-19T07:12:13.689Z,78.62
2023-02-19T07:17:15.197Z,78.02
2023-02-19T07:22:16.706Z,77.69
2023-02-19T07:27:18.310Z,78.04
2023-02-19T07:32:20.215Z,77.58
2023-02-19T07:37:22.021Z,77.80
2023-02-19T07:42:23.859Z,77.24
2023-02-19T07:47:25.480Z,77.29
2023-02-19T07:52:28.296Z,77.48
2023-02-19T07:57:31.400Z,77.19
2023-02-19T08:02:51.390Z,76.31
2023-02-19T08:07:53.082Z,76.22
2023-02-19T08:13:15.405Z,76.51
2023-02-19T08:18:19.103Z,75.74
2023-02-19T08:23:21.134Z,75.01
2023-02-19T08:28:22.851Z,74.96
2023-02-19T08:33:24.801Z,74.68
2023-02-19T08:38:26.377Z,73.62
2023-02-19T08:43:28.206Z,73.34
2023-02-19T08:48:29.778Z,72.65
2023-02-19T08:53:33.012Z,72.20
2023-02-19T08:58:35.352Z,72.73
2023-02-19T09:03:37.099Z,72.89
2023-02-19T09:08:38.599Z,72.56
2023-02-19T09:13:40.272Z,71.55
2023-02-19T09:18:42.277Z,71.15
2023-02-19T09:23:43.914Z,70.57
2023-02-19T09:28:45.588Z,69.40
2023-02-19T09:33:48.601Z,69.06
2023-02-19T09:38:50.520Z,69.54
2023-02-19T09:43:52.592Z,69.11
2023-02-19T09:49:01.002Z,69.66
2023-02-19T09:54:06.391Z,70.21
2023-02-19T09:59:19.888Z,69.65
2023-02-19T10:04:21.431Z,69.08
2023-02-19T10:09:27.050Z,69.61
2023-02-19T10:14:42.778Z,69.93
2023-02-19T10:19:44.533Z,69.29
2023-02-19T10:24:52.016Z,67.26
2023-02-19T10:29:53.830Z,65.35
2023-02-19T10:35:07.637Z,60.92
2023-02-19T10:40:28.895Z,61.35
2023-02-19T10:45:50.461Z,62.50
2023-02-19T10:50:57.152Z,63.38
2023-02-19T10:56:15.389Z,64.57
2023-02-19T11:01:17.328Z,63.37
2023-02-19T11:06:22.177Z,59.16
2023-02-19T11:11:33.613Z,56.46
2023-02-19T11:16:45.686Z,50.02
2023-02-19T11:21:48.139Z,49.84
2023-02-19T11:26:50.011Z,51.20
2023-02-19T11:31:51.709Z,54.54
2023-02-19T11:37:18.000Z,55.67
2023-02-19T11:42:29.586Z,52.12
2023-02-19T11:47:53.153Z,50.02
2023-02-19T11:53:22.579Z,47.22
2023-02-19T11:58:39.945Z,44.15
2023-02-19T12:04:16.631Z,42.61
2023-02-19T12:09:30.024Z,43.47
2023-02-19T12:14:44.400Z,47.90
2023-02-19T12:20:16.529Z,49.93
2023-02-19T12:25:39.719Z,51.36
2023-02-19T12:30:56.496Z,46.15
2023-02-19T12:36:16.236Z,46.52
2023-02-19T12:41:44.436Z,49.56
2023-02-19T12:46:54.849Z,52.15
2023-02-19T12:52:01.153Z,51.87
2023-02-19T12:57:27.497Z,47.10
2023-02-19T13:02:44.098Z,44.44
2023-02-19T13:07:56.739Z,40.51
2023-02-19T13:13:04.319Z,39.25
2023-02-19T13:18:24.487Z,37.39
2023-02-19T13:23:54.007Z,35.65
2023-02-19T13:29:20.417Z,33.80
2023-02-19T13:34:54.866Z,38.16
2023-02-19T13:40:00.443Z,41.08
2023-02-19T13:45:05.394Z,44.28
2023-02-19T13:50:08.629Z,46.74
2023-02-19T13:55:43.026Z,48.41
2023-02-19T14:00:52.040Z,48.89
2023-02-19T14:05:58.729Z,50.55
2023-02-19T14:11:03.184Z,51.76
2023-02-19T14:16:04.801Z,53.81
2023-02-19T14:21:25.037Z,54.89
2023-02-19T14:26:27.880Z,55.45
2023-02-19T14:31:36.661Z,56.13
2023-02-19T14:36:53.775Z,56.67
2023-02-19T14:42:01.926Z,56.42
2023-02-19T14:47:07.838Z,56.56
2023-02-19T14:52:18.902Z,56.90
2023-02-19T14:57:43.350Z,57.05
2023-02-19T15:02:45.235Z,56.59
2023-02-19T15:07:46.902Z,56.83
2023-02-19T15:12:54.997Z,57.28
2023-02-19T15:17:59.429Z,57.62
2023-02-19T15:23:04.645Z,57.90
2023-02-19T15:28:28.783Z,58.17
2023-02-19T15:33:30.523Z,58.07
2023-02-19T15:38:33.870Z,57.86
2023-02-19T15:43:44.919Z,57.58
2023-02-19T15:48:59.266Z,57.62
2023-02-19T15:54:13.680Z,57.58
2023-02-19T15:59:21.817Z,57.79
2023-02-19T16:04:24.290Z,58.12
2023-02-19T16:09:31.089Z,58.55
2023-02-19T16:14:35.366Z,58.92
2023-02-19T16:19:43.233Z,59.09
2023-02-19T16:24:55.263Z,59.31
2023-02-19T16:29:57.841Z,59.44
2023-02-19T16:34:59.874Z,59.49
2023-02-19T16:40:07.588Z,60.06
2023-02-19T16:45:09.117Z,60.67
2023-02-19T16:50:39.692Z,60.40
2023-02-19T16:55:41.212Z,60.60
2023-02-19T17:00:43.114Z,60.85
2023-02-19T17:05:45.317Z,61.37
2023-02-19T17:10:47.334Z,61.56
2023-02-19T17:15:48.911Z,61.76
2023-02-19T17:21:11.102Z,62.34
2023-02-19T17:26:18.585Z,62.46
2023-02-19T17:31:20.349Z,62.97
2023-02-19T17:36:27.069Z,63.52
2023-02-19T17:41:29.624Z,63.77
2023-02-19T17:46:31.131Z,64.66
2023-02-19T17:51:33.307Z,65.27
2023-02-19T17:56:35.290Z,65.47
2023-02-19T18:01:38.608Z,65.34
2023-02-19T18:06:40.223Z,65.45
2023-02-19T18:11:46.555Z,65.46
2023-02-19T18:16:50.240Z,65.47
2023-02-19T18:21:52.566Z,65.60
2023-02-19T18:26:54.130Z,65.39
2023-02-19T18:31:56.145Z,65.00
2023-02-19T18:36:58.137Z,64.74
2023-02-19T18:42:00.702Z,65.01
2023-02-19T18:47:02.318Z,64.83
2023-02-19T18:52:04.155Z,64.97
2023-02-19T18:57:05.781Z,64.64
2023-02-19T19:02:09.536Z,64.30
2023-02-19T19:07:11.137Z,64.09
2023-02-19T19:12:13.614Z,64.19
2023-02-19T19:17:15.500Z,64.51
2023-02-19T19:22:22.784Z,64.70
2023-02-19T19:27:24.750Z,64.86
2023-02-19T19:32:26.651Z,64.75
2023-02-19T19:37:29.446Z,64.94
2023-02-19T19:42:31.015Z,65.12
2023-02-19T19:47:32.563Z,64.87
2023-02-19T19:52:34.429Z,64.54
2023-02-19T19:57:36.402Z,64.13
2023-02-19T20:02:38.024Z,63.71
2023-02-19T20:07:39.888Z,63.59
2023-02-19T20:12:41.734Z,63.20
2023-02-19T20:17:43.226Z,63.41
2023-02-19T20:22:44.862Z,63.42
2023-02-19T20:27:49.002Z,64.00
2023-02-19T20:32:51.703Z,64.13
2023-02-19T20:37:53.312Z,63.91
2023-02-19T20:42:54.848Z,63.96
2023-02-19T20:47:56.476Z,63.89
2023-02-19T20:52:58.212Z,64.09
2023-02-19T20:58:00.208Z,64.86
2023-02-19T21:03:02.249Z,64.62
2023-02-19T21:08:04.687Z,64.96
2023-02-19T21:13:06.280Z,65.34
2023-02-19T21:18:07.894Z,65.32
2023-02-19T21:23:09.415Z,66.03
2023-02-19T21:28:12.810Z,65.85
2023-02-19T21:33:15.063Z,65.66
2023-02-19T21:38:16.593Z,65.78
2023-02-19T21:43:18.207Z,65.81
2023-02-19T21:48:19.726Z,65.81
2023-02-19T21:53:21.406Z,66.13
2023-02-19T21:58:23.399Z,66.55
2023-02-19T22:03:26.655Z,67.07
2023-02-19T22:08:28.514Z,67.15
2023-02-19T22:13:30.357Z,67.42
2023-02-19T22:18:31.954Z,67.18
2023-02-19T22:23:33.910Z,68.03
2023-02-19T22:28:35.549Z,68.29
2023-02-19T22:33:37.062Z,68.99
2023-02-19T22:38:38.648Z,69.31
2023-02-19T22:43:40.320Z,69.20
2023-02-19T22:48:42.035Z,69.28
2023-02-19T22:53:47.943Z,68.80
2023-02-19T22:58:49.729Z,69.12
2023-02-19T23:03:59.118Z,70.01
2023-02-19T23:09:11.044Z,70.30
2023-02-19T23:14:13.283Z,71.17
2023-02-19T23:19:16.004Z,71.56
2023-02-19T23:24:18.756Z,71.32
2023-02-19T23:29:25.165Z,70.92
2023-02-19T23:34:27.493Z,70.41
2023-02-19T23:39:29.207Z,70.44
2023-02-19T23:44:30.804Z,70.40
2023-02-19T23:49:32.352Z,69.71
2023-02-19T23:54:34.811Z,69.35
2023-02-19T23:59:36.722Z,69.29
